createdAt,value
2022-10-30T00:01:05.098Z,10.77
2022-10-30T00:05:08.932Z,11.65
2022-10-30T00:09:12.053Z,10.65
2022-10-30T00:13:16.464Z,10.57
2022-10-30T00:17:50.053Z,10.75
2022-10-30T00:21:53.095Z,11.82
2022-10-30T00:25:56.147Z,11.10
2022-10-30T00:30:00.592Z,10.73
2022-10-30T00:34:34.286Z,11.18
2022-10-30T00:38:37.343Z,11.23
2022-10-30T00:42:40.377Z,11.65
2022-10-30T00:46:44.808Z,11.85
2022-10-30T00:51:19.630Z,11.45
2022-10-30T00:55:25.984Z,12.55
2022-10-30T00:59:33.545Z,12.35
2022-10-30T01:04:08.693Z,11.95
2022-10-30T01:08:11.835Z,12.93
2022-10-30T01:12:15.187Z,11.57
2022-10-30T01:16:37.210Z,11.93
2022-10-30T01:21:13.136Z,11.10
2022-10-30T01:25:30.726Z,11.40
2022-10-30T01:29:47.226Z,13.35
2022-10-30T01:34:01.702Z,14.23
2022-10-30T01:38:11.406Z,13.23
2022-10-30T01:42:47.167Z,13.05
2022-10-30T01:47:05.138Z,13.60
2022-10-30T01:51:17.204Z,12.02
2022-10-30T01:55:32.379Z,10.48
2022-10-30T01:59:39.242Z,10.63
2022-10-30T02:03:42.448Z,11.95
2022-10-30T02:08:18.879Z,10.73
2022-10-30T02:12:24.396Z,11.73
2022-10-30T02:16:27.550Z,12.57
2022-10-30T02:21:06.675Z,12.18
2022-10-30T02:25:10.881Z,11.18
2022-10-30T02:29:14.241Z,12.30
2022-10-30T02:37:27.283Z,12.32
2022-10-30T02:41:30.311Z,11.50
2022-10-30T02:45:33.399Z,13.00
2022-10-30T02:49:36.431Z,13.32
2022-10-30T02:54:13.057Z,12.68
2022-10-30T02:58:18.049Z,12.85
2022-10-30T03:02:21.190Z,12.25
2022-10-30T03:06:57.872Z,12.65
2022-10-30T03:11:03.433Z,12.75
2022-10-30T03:15:09.267Z,12.20
2022-10-30T03:19:12.301Z,13.35
2022-10-30T03:23:15.334Z,13.00
2022-10-30T03:27:18.371Z,12.23
2022-10-30T03:31:56.849Z,12.65
2022-10-30T03:36:00.625Z,14.85
2022-10-30T03:40:03.662Z,13.77
2022-10-30T03:44:40.437Z,12.82
2022-10-30T03:49:18.990Z,11.05
2022-10-30T03:53:24.024Z,10.30
2022-10-30T03:57:30.084Z,11.30
2022-10-30T04:02:07.099Z,12.27
2022-10-30T04:06:45.362Z,11.65
2022-10-30T04:10:48.961Z,12.00
2022-10-30T04:15:22.979Z,13.68
2022-10-30T04:19:59.508Z,13.57
2022-10-30T04:24:03.981Z,12.80
2022-10-30T04:28:40.692Z,13.80
2022-10-30T04:32:47.897Z,13.25
2022-10-30T04:37:19.045Z,12.07
2022-10-30T04:41:23.482Z,13.32
2022-10-30T04:45:57.393Z,14.48
2022-10-30T04:50:00.604Z,13.98
2022-10-30T04:54:36.873Z,13.70
2022-10-30T04:58:41.721Z,14.00
2022-10-30T05:07:20.690Z,13.50
2022-10-30T05:11:24.117Z,12.65
2022-10-30T05:16:02.617Z,13.77
2022-10-30T05:20:36.242Z,14.40
2022-10-30T05:25:13.260Z,12.68
2022-10-30T05:29:50.429Z,15.75
2022-10-30T05:34:26.771Z,13.98
2022-10-30T05:38:31.204Z,13.73
2022-10-30T05:43:08.994Z,12.40
2022-10-30T05:47:12.782Z,12.10
2022-10-30T05:51:49.570Z,11.73
2022-10-30T05:56:27.679Z,12.23
2022-10-30T06:00:32.299Z,13.57
2022-10-30T06:05:06.292Z,13.95
2022-10-30T06:09:43.136Z,13.60
2022-10-30T06:14:21.221Z,14.77
2022-10-30T06:18:24.371Z,14.50
2022-10-30T06:23:02.262Z,14.70
2022-10-30T06:27:39.489Z,16.55
2022-10-30T06:32:15.823Z,15.32
2022-10-30T06:36:20.508Z,15.02
2022-10-30T06:40:54.305Z,14.25
2022-10-30T06:44:57.345Z,13.45
2022-10-30T06:49:34.130Z,13.30
2022-10-30T06:54:12.562Z,12.52
2022-10-30T06:58:46.366Z,15.70
2022-10-30T07:02:57.433Z,13.07
2022-10-30T07:07:25.448Z,12.73
2022-10-30T07:12:06.998Z,12.32
2022-10-30T07:16:38.088Z,12.43
2022-10-30T07:21:14.949Z,12.77
2022-10-30T07:25:51.926Z,13.10
2022-10-30T07:29:56.373Z,10.57
2022-10-30T07:34:29.833Z,11.45
2022-10-30T07:38:32.997Z,10.02
2022-10-30T07:42:35.987Z,10.73
2022-10-30T07:47:14.166Z,11.05
2022-10-30T07:51:51.179Z,11.90
2022-10-30T07:55:54.257Z,11.55
2022-10-30T08:00:31.124Z,11.50
2022-10-30T08:04:35.631Z,12.05
2022-10-30T08:09:09.758Z,11.10
2022-10-30T08:13:14.349Z,10.73
2022-10-30T08:17:17.418Z,11.75
2022-10-30T08:21:22.135Z,11.98
2022-10-30T08:25:27.374Z,10.98
2022-10-30T08:29:30.465Z,10.15
2022-10-30T08:33:33.685Z,11.25
2022-10-30T08:38:11.993Z,9.07
2022-10-30T08:42:15.149Z,8.95
2022-10-30T08:46:51.542Z,10.32
2022-10-30T08:51:28.465Z,9.23
2022-10-30T08:55:33.862Z,8.77
2022-10-30T09:00:10.817Z,9.40
2022-10-30T09:04:13.875Z,7.85
2022-10-30T09:08:50.673Z,8.30
2022-10-30T09:12:59.408Z,8.05
2022-10-30T09:17:04.441Z,7.07
2022-10-30T09:21:07.817Z,8.35
2022-10-30T09:25:10.953Z,8.50
2022-10-30T09:29:49.254Z,7.10
2022-10-30T09:34:23.373Z,7.82
2022-10-30T09:39:00.697Z,7.15
2022-10-30T09:43:41.378Z,7.18
2022-10-30T09:48:29.609Z,8.00
2022-10-30T09:53:03.574Z,6.30
2022-10-30T09:57:33.709Z,8.50
2022-10-30T10:02:10.736Z,9.68
2022-10-30T10:06:45.464Z,7.45
2022-10-30T10:11:20.156Z,6.50
2022-10-30T10:15:58.039Z,6.43
2022-10-30T10:20:02.962Z,6.28
2022-10-30T10:24:40.037Z,5.93
2022-10-30T10:29:13.869Z,6.20
2022-10-30T10:34:12.044Z,6.00
2022-10-30T10:38:56.236Z,5.30
2022-10-30T10:43:12.540Z,5.60
2022-10-30T10:47:35.553Z,5.63
2022-10-30T10:51:55.340Z,5.18
2022-10-30T10:56:00.758Z,5.43
2022-10-30T11:00:39.147Z,5.13
2022-10-30T11:04:44.736Z,5.80
2022-10-30T11:08:49.048Z,5.65
2022-10-30T11:13:24.802Z,6.13
2022-10-30T11:17:38.179Z,6.07
2022-10-30T11:21:46.140Z,5.43
2022-10-30T11:25:49.213Z,5.60
2022-10-30T11:29:55.954Z,5.20
2022-10-30T11:34:35.158Z,5.20
2022-10-30T11:38:38.297Z,5.30
2022-10-30T11:42:44.189Z,5.78
2022-10-30T11:46:47.621Z,4.85
2022-10-30T11:51:28.047Z,5.53
2022-10-30T11:55:37.599Z,5.05
2022-10-30T11:59:45.918Z,5.50
2022-10-30T12:03:49.161Z,4.82
2022-10-30T12:07:52.615Z,4.95
2022-10-30T12:12:33.313Z,5.30
2022-10-30T12:16:37.733Z,5.22
2022-10-30T12:20:40.850Z,5.43
2022-10-30T12:25:21.866Z,5.53
2022-10-30T12:30:02.728Z,5.97
2022-10-30T12:34:12.994Z,4.90
2022-10-30T12:38:37.764Z,5.05
2022-10-30T12:42:46.834Z,5.47
2022-10-30T12:46:57.331Z,6.00
2022-10-30T12:51:15.976Z,5.78
2022-10-30T12:55:26.763Z,6.47
2022-10-30T12:59:36.867Z,5.80
2022-10-30T13:03:50.192Z,6.38
2022-10-30T13:08:02.084Z,4.93
2022-10-30T13:12:10.864Z,5.60
2022-10-30T13:16:17.985Z,6.25
2022-10-30T13:20:23.807Z,5.47
2022-10-30T13:25:03.942Z,5.45
2022-10-30T13:29:38.843Z,5.43
2022-10-30T13:33:51.333Z,6.00
2022-10-30T13:38:26.535Z,6.78
2022-10-30T13:42:58.418Z,10.40
2022-10-30T13:47:13.892Z,5.88
2022-10-30T13:51:38.629Z,5.30
2022-10-30T13:55:44.752Z,5.60
2022-10-30T14:00:15.793Z,5.38
2022-10-30T14:04:25.897Z,5.35
2022-10-30T14:08:37.400Z,5.40
2022-10-30T14:13:15.297Z,5.13
2022-10-30T14:17:40.418Z,5.60
2022-10-30T14:22:16.717Z,5.15
2022-10-30T14:26:54.601Z,5.15
2022-10-30T14:31:37.150Z,4.90
2022-10-30T14:36:14.960Z,5.53
2022-10-30T14:40:39.166Z,5.65
2022-10-30T14:45:10.865Z,6.30
2022-10-30T14:49:47.910Z,5.65
2022-10-30T14:54:18.805Z,5.22
2022-10-30T14:58:26.077Z,6.72
2022-10-30T15:02:58.386Z,9.65
2022-10-30T15:07:09.198Z,6.47
2022-10-30T15:11:50.958Z,6.13
2022-10-30T15:16:17.629Z,5.88
2022-10-30T15:20:51.915Z,6.13
2022-10-30T15:25:24.924Z,6.40
2022-10-30T15:30:00.937Z,6.20
2022-10-30T15:34:04.351Z,7.45
2022-10-30T15:38:41.238Z,8.10
2022-10-30T15:43:17.955Z,7.88
2022-10-30T15:47:59.870Z,7.68
2022-10-30T15:52:05.754Z,7.25
2022-10-30T15:57:08.188Z,7.25
2022-10-30T16:01:26.013Z,6.75
2022-10-30T16:05:31.479Z,7.60
2022-10-30T16:09:34.643Z,8.27
2022-10-30T16:13:37.788Z,7.38
2022-10-30T16:18:20.537Z,7.25
2022-10-30T16:22:29.221Z,7.22
2022-10-30T16:27:03.558Z,7.43
2022-10-30T16:31:10.075Z,7.05
2022-10-30T16:35:13.275Z,8.90
2022-10-30T16:39:52.672Z,7.47
2022-10-30T16:44:27.797Z,8.25
2022-10-30T16:49:02.607Z,7.50
2022-10-30T16:53:07.236Z,8.55
2022-10-30T16:57:44.652Z,7.78
2022-10-30T17:01:55.154Z,8.52
2022-10-30T17:06:01.236Z,8.38
2022-10-30T17:10:36.030Z,8.00
2022-10-30T17:14:50.003Z,8.63
2022-10-30T17:19:35.373Z,10.23
2022-10-30T17:23:45.102Z,9.05
2022-10-30T17:27:50.386Z,9.52
2022-10-30T17:32:29.794Z,9.05
2022-10-30T17:36:32.940Z,11.23
2022-10-30T17:41:12.528Z,12.02
2022-10-30T17:45:46.952Z,10.30
2022-10-30T17:49:51.386Z,9.95
2022-10-30T17:54:25.093Z,10.20
2022-10-30T17:58:28.419Z,13.00
2022-10-30T18:02:31.498Z,11.90
2022-10-30T18:06:35.981Z,13.77
2022-10-30T18:11:11.310Z,12.35
2022-10-30T18:15:30.089Z,10.73
2022-10-30T18:20:00.899Z,14.27
2022-10-30T18:24:39.490Z,13.18
2022-10-30T18:29:13.223Z,13.43
2022-10-30T18:33:50.019Z,24.50
2022-10-30T18:38:26.869Z,13.73
2022-10-30T18:43:05.350Z,16.70
2022-10-30T18:47:40.297Z,17.73
2022-10-30T18:52:13.974Z,13.95
2022-10-30T18:56:50.772Z,15.52
2022-10-30T19:01:27.656Z,16.13
2022-10-30T19:05:35.325Z,15.73
2022-10-30T19:10:06.811Z,15.63
2022-10-30T19:14:40.576Z,15.32
2022-10-30T19:19:18.057Z,16.05
2022-10-30T19:23:56.949Z,22.98
2022-10-30T19:28:32.445Z,17.77
2022-10-30T19:33:06.116Z,14.82
2022-10-30T19:37:10.398Z,16.83
2022-10-30T19:41:14.862Z,18.80
2022-10-30T19:45:51.352Z,16.30
2022-10-30T19:50:27.098Z,16.95
2022-10-30T19:54:31.348Z,15.82
2022-10-30T19:59:06.947Z,14.65
2022-10-30T20:03:12.036Z,14.65
2022-10-30T20:07:15.173Z,13.38
2022-10-30T20:11:52.063Z,15.82
2022-10-30T20:15:57.949Z,15.38
2022-10-30T20:20:01.007Z,12.98
2022-10-30T20:24:05.049Z,16.10
2022-10-30T20:28:40.222Z,18.02
2022-10-30T20:33:15.341Z,16.33
2022-10-30T20:37:56.086Z,13.73
2022-10-30T20:41:59.231Z,12.48
2022-10-30T20:46:35.962Z,20.88
2022-10-30T20:51:14.843Z,12.55
2022-10-30T20:55:18.175Z,15.57
2022-10-30T20:59:21.680Z,14.57
2022-10-30T21:04:01.566Z,16.23
2022-10-30T21:08:07.151Z,15.55
2022-10-30T21:12:40.785Z,17.92
2022-10-30T21:16:44.129Z,14.23
2022-10-30T21:20:47.321Z,15.50
2022-10-30T21:25:25.651Z,22.65
2022-10-30T21:29:31.295Z,17.30
2022-10-30T21:34:05.202Z,20.30
2022-10-30T21:38:08.239Z,22.67
2022-10-30T21:42:48.377Z,26.50
2022-10-30T21:46:52.249Z,27.92
2022-10-30T21:50:55.591Z,33.40
2022-10-30T21:55:32.354Z,13.45
2022-10-30T21:59:36.801Z,25.55
2022-10-30T22:03:39.865Z,23.90
2022-10-30T22:08:18.300Z,16.60
2022-10-30T22:12:21.340Z,15.45
2022-10-30T22:16:59.565Z,16.40
2022-10-30T22:21:03.952Z,16.40
2022-10-30T22:25:41.788Z,15.05
2022-10-30T22:29:44.810Z,14.65
2022-10-30T22:33:49.438Z,11.02
2022-10-30T22:38:23.505Z,12.57
2022-10-30T22:42:26.557Z,13.25
2022-10-30T22:47:03.741Z,11.65
2022-10-30T22:51:13.532Z,13.02
2022-10-30T22:55:19.403Z,18.13
2022-10-30T22:59:22.878Z,11.73
2022-10-30T23:04:00.465Z,11.88
2022-10-30T23:08:05.268Z,15.07
2022-10-30T23:12:08.452Z,14.70
2022-10-30T23:16:45.441Z,25.73
2022-10-30T23:20:49.518Z,18.33
2022-10-30T23:24:53.934Z,23.92
2022-10-30T23:29:30.800Z,12.45
2022-10-30T23:34:08.544Z,11.10
2022-10-30T23:38:11.599Z,16.05
2022-10-30T23:42:16.465Z,17.23
2022-10-30T23:46:19.481Z,19.88
2022-10-30T23:50:22.598Z,14.68
2022-10-30T23:54:25.978Z,13.90
2022-10-30T23:58:59.879Z,15.13
